createdAt,value
2019-05-29T00:01:53.265Z,10.07
2019-05-29T00:05:57.372Z,8.30
2019-05-29T00:10:01.514Z,10.17
2019-05-29T00:14:20.723Z,5.90
2019-05-29T00:18:12.679Z,8.80
2019-05-29T00:22:18.587Z,7.37
2019-05-29T00:26:22.589Z,8.30
2019-05-29T00:30:26.698Z,8.23
2019-05-29T00:34:30.931Z,6.70
2019-05-29T00:38:34.887Z,9.47
2019-05-29T00:42:39.112Z,11.13
2019-05-29T00:46:43.197Z,10.50
2019-05-29T00:50:47.427Z,10.67
2019-05-29T00:54:51.521Z,8.13
2019-05-29T00:58:55.569Z,13.30
2019-05-29T01:02:59.679Z,9.40
2019-05-29T01:07:03.754Z,10.77
2019-05-29T01:11:07.876Z,14.37
2019-05-29T01:15:13.324Z,11.47
2019-05-29T01:19:24.636Z,9.07
2019-05-29T01:23:28.672Z,10.00
2019-05-29T01:27:32.761Z,12.10
2019-05-29T01:31:36.845Z,16.23
2019-05-29T01:35:40.873Z,14.50
2019-05-29T01:39:45.000Z,16.13
2019-05-29T01:43:49.089Z,18.90
2019-05-29T01:47:53.261Z,17.57
2019-05-29T01:51:57.350Z,13.90
2019-05-29T01:56:01.446Z,13.00
2019-05-29T02:00:05.636Z,9.93
2019-05-29T02:04:09.923Z,11.23
2019-05-29T02:08:14.182Z,11.20
2019-05-29T02:12:19.709Z,9.50
2019-05-29T02:16:24.886Z,10.03
2019-05-29T02:20:29.102Z,9.07
2019-05-29T02:24:33.233Z,9.50
2019-05-29T02:28:37.218Z,11.10
2019-05-29T02:32:41.245Z,8.80
2019-05-29T02:36:46.369Z,8.00
2019-05-29T02:40:50.439Z,11.20
2019-05-29T02:44:54.614Z,12.40
2019-05-29T02:48:58.867Z,18.03
2019-05-29T02:53:03.089Z,16.67
2019-05-29T02:57:07.260Z,16.77
2019-05-29T03:01:11.254Z,15.43
2019-05-29T03:05:15.452Z,19.90
2019-05-29T03:09:22.606Z,13.40
2019-05-29T03:13:27.669Z,12.40
2019-05-29T03:17:33.816Z,15.07
2019-05-29T03:21:38.054Z,14.10
2019-05-29T03:25:42.329Z,14.90
2019-05-29T03:29:46.425Z,11.33
2019-05-29T03:33:51.191Z,14.53
2019-05-29T03:37:58.668Z,12.07
2019-05-29T03:42:01.426Z,10.87
2019-05-29T03:46:05.558Z,10.37
2019-05-29T03:50:09.679Z,11.47
2019-05-29T03:54:13.805Z,13.63
2019-05-29T03:58:17.909Z,11.27
2019-05-29T04:02:21.980Z,10.73
2019-05-29T04:06:26.962Z,8.40
2019-05-29T04:10:32.873Z,10.87
2019-05-29T04:14:37.881Z,10.73
2019-05-29T04:18:42.146Z,9.13
2019-05-29T04:22:46.394Z,8.50
2019-05-29T04:26:51.558Z,9.50
2019-05-29T04:30:55.627Z,11.57
2019-05-29T04:34:59.714Z,8.00
2019-05-29T04:39:04.974Z,7.57
2019-05-29T04:43:09.038Z,8.70
2019-05-29T04:47:13.087Z,9.20
2019-05-29T04:51:17.160Z,7.40
2019-05-29T04:55:21.422Z,7.10
2019-05-29T04:59:25.647Z,5.63
2019-05-29T05:03:30.986Z,8.50
2019-05-29T05:07:35.358Z,9.37
2019-05-29T05:11:39.699Z,5.97
2019-05-29T05:15:44.592Z,6.00
2019-05-29T05:19:48.694Z,8.47
2019-05-29T05:23:53.069Z,6.43
2019-05-29T05:27:57.548Z,8.63
2019-05-29T05:32:01.701Z,9.23
2019-05-29T05:36:05.765Z,12.00
2019-05-29T05:40:10.129Z,11.37
2019-05-29T05:44:14.390Z,9.28
2019-05-29T05:48:18.675Z,7.17
2019-05-29T05:52:22.765Z,6.70
2019-05-29T05:56:26.729Z,5.97
2019-05-29T06:00:34.005Z,8.00
2019-05-29T06:04:38.314Z,6.93
2019-05-29T06:08:42.743Z,7.65
2019-05-29T06:12:46.901Z,9.37
2019-05-29T06:16:52.452Z,6.70
2019-05-29T06:20:56.574Z,6.00
2019-05-29T06:25:00.625Z,8.27
2019-05-29T06:29:05.677Z,7.53
2019-05-29T06:33:09.820Z,9.73
2019-05-29T06:37:14.084Z,7.53
2019-05-29T06:41:18.174Z,7.57
2019-05-29T06:45:29.572Z,9.30
2019-05-29T06:49:33.939Z,10.08
2019-05-29T06:53:38.105Z,6.83
2019-05-29T06:57:43.115Z,7.83
2019-05-29T07:01:49.735Z,6.42
2019-05-29T07:05:53.881Z,7.45
2019-05-29T07:09:58.140Z,8.20
2019-05-29T07:14:02.244Z,7.10
2019-05-29T07:18:06.603Z,8.15
2019-05-29T07:22:10.730Z,7.80
2019-05-29T07:26:14.875Z,6.20
2019-05-29T07:30:19.437Z,7.53
2019-05-29T07:34:23.665Z,6.08
2019-05-29T07:38:27.838Z,8.68
2019-05-29T07:42:32.183Z,5.78
2019-05-29T07:46:36.276Z,7.35
2019-05-29T07:50:40.501Z,8.95
2019-05-29T07:54:45.764Z,7.60
2019-05-29T07:59:01.923Z,6.22
2019-05-29T08:02:57.350Z,6.37
2019-05-29T08:07:01.567Z,6.78
2019-05-29T08:11:05.939Z,7.37
2019-05-29T08:15:10.454Z,7.17
2019-05-29T08:19:14.596Z,5.90
2019-05-29T08:23:18.817Z,7.80
2019-05-29T08:27:22.961Z,5.67
2019-05-29T08:31:27.254Z,6.35
2019-05-29T08:35:31.393Z,6.65
2019-05-29T08:39:37.042Z,5.95
2019-05-29T08:43:42.515Z,5.47
2019-05-29T08:47:47.727Z,4.83
2019-05-29T08:51:52.377Z,4.55
2019-05-29T08:55:56.606Z,4.58
2019-05-29T09:00:00.828Z,4.35
2019-05-29T09:04:04.995Z,6.75
2019-05-29T09:08:09.073Z,5.03
2019-05-29T09:12:13.325Z,6.87
2019-05-29T09:16:17.590Z,4.12
2019-05-29T09:20:37.259Z,2.95
2019-05-29T09:24:27.613Z,5.00
2019-05-29T09:28:31.838Z,5.58
2019-05-29T09:32:49.640Z,4.33
2019-05-29T09:36:41.908Z,3.90
2019-05-29T09:40:46.137Z,3.17
2019-05-29T09:44:50.347Z,4.47
2019-05-29T09:48:54.471Z,3.95
2019-05-29T09:53:00.297Z,3.37
2019-05-29T09:57:04.750Z,2.85
2019-05-29T10:01:21.402Z,2.75
2019-05-29T10:05:16.022Z,4.03
2019-05-29T10:09:20.484Z,1.80
2019-05-29T10:13:24.883Z,2.30
2019-05-29T10:17:28.994Z,2.42
2019-05-29T10:21:41.447Z,2.42
2019-05-29T10:25:39.083Z,2.15
2019-05-29T10:29:43.167Z,2.67
2019-05-29T10:33:48.267Z,1.50
2019-05-29T10:37:53.020Z,1.10
2019-05-29T10:41:57.502Z,4.12
2019-05-29T10:46:01.800Z,1.77
2019-05-29T10:50:06.234Z,3.42
2019-05-29T10:54:10.562Z,2.85
2019-05-29T10:58:14.755Z,1.67
2019-05-29T11:02:19.103Z,1.25
2019-05-29T11:06:23.343Z,4.72
2019-05-29T11:10:27.678Z,1.72
2019-05-29T11:14:31.927Z,1.72
2019-05-29T11:18:37.225Z,3.15
2019-05-29T11:22:41.436Z,2.52
2019-05-29T11:26:45.614Z,3.33
2019-05-29T11:30:51.933Z,0.98
2019-05-29T11:34:57.421Z,1.35
2019-05-29T11:39:05.686Z,1.20
2019-05-29T11:43:07.369Z,1.60
2019-05-29T11:47:11.618Z,1.07
2019-05-29T11:51:15.921Z,0.98
2019-05-29T11:55:20.143Z,1.30
2019-05-29T11:59:25.946Z,1.00
2019-05-29T12:03:31.139Z,3.70
2019-05-29T12:07:35.232Z,1.10
2019-05-29T12:11:39.469Z,0.50
2019-05-29T12:15:44.772Z,1.32
2019-05-29T12:19:48.881Z,1.30
2019-05-29T12:23:53.996Z,0.70
2019-05-29T12:27:59.248Z,0.60
2019-05-29T12:32:08.403Z,1.17
2019-05-29T12:36:09.340Z,3.62
2019-05-29T12:40:13.992Z,0.55
2019-05-29T12:44:18.258Z,0.70
2019-05-29T12:48:22.639Z,0.88
2019-05-29T12:52:26.859Z,0.93
2019-05-29T12:56:31.027Z,1.10
2019-05-29T13:00:35.212Z,1.00
2019-05-29T13:05:06.071Z,1.02
2019-05-29T13:08:46.564Z,1.55
2019-05-29T13:12:51.211Z,1.00
2019-05-29T13:16:56.684Z,0.93
2019-05-29T13:21:01.040Z,0.80
2019-05-29T13:25:06.582Z,0.82
2019-05-29T13:29:11.206Z,1.55
2019-05-29T13:33:15.331Z,0.78
2019-05-29T13:37:20.407Z,0.55
2019-05-29T13:41:24.586Z,1.25
2019-05-29T13:45:28.650Z,0.85
2019-05-29T13:49:32.871Z,0.75
2019-05-29T13:53:36.965Z,2.95
2019-05-29T13:57:41.093Z,0.70
2019-05-29T14:01:48.269Z,1.20
2019-05-29T14:05:51.038Z,2.17
2019-05-29T14:09:55.365Z,1.15
2019-05-29T14:13:59.472Z,1.87
2019-05-29T14:18:04.881Z,1.37
2019-05-29T14:22:09.350Z,1.65
2019-05-29T14:26:13.962Z,1.98
2019-05-29T14:30:18.125Z,2.05
2019-05-29T14:34:22.343Z,2.67
2019-05-29T14:38:26.450Z,2.80
2019-05-29T14:42:30.737Z,2.85
2019-05-29T14:46:35.168Z,3.17
2019-05-29T14:50:39.309Z,3.92
2019-05-29T14:54:43.470Z,1.20
2019-05-29T14:58:48.819Z,1.47
2019-05-29T15:02:53.054Z,0.78
2019-05-29T15:06:57.178Z,0.93
2019-05-29T15:11:01.433Z,2.10
2019-05-29T15:15:06.677Z,1.72
2019-05-29T15:19:11.500Z,1.25
2019-05-29T15:23:15.909Z,2.22
2019-05-29T15:27:21.051Z,1.47
2019-05-29T15:31:26.411Z,2.17
2019-05-29T15:35:30.667Z,1.42
2019-05-29T15:39:34.775Z,3.10
2019-05-29T15:43:38.960Z,2.00
2019-05-29T15:47:43.192Z,1.50
2019-05-29T15:51:47.289Z,2.40
2019-05-29T15:55:51.595Z,1.37
2019-05-29T15:59:55.719Z,1.30
2019-05-29T16:03:59.841Z,0.90
2019-05-29T16:08:04.142Z,1.30
2019-05-29T16:12:08.591Z,2.37
2019-05-29T16:16:13.155Z,1.27
2019-05-29T16:20:18.541Z,1.45
2019-05-29T16:24:23.072Z,3.35
2019-05-29T16:28:27.347Z,2.08
2019-05-29T16:32:31.497Z,2.17
2019-05-29T16:36:35.564Z,4.03
2019-05-29T16:40:39.856Z,3.95
2019-05-29T16:44:45.051Z,3.85
2019-05-29T16:48:49.410Z,1.80
2019-05-29T16:52:53.550Z,2.62
2019-05-29T16:56:57.715Z,3.90
2019-05-29T17:01:01.866Z,2.15
2019-05-29T17:05:06.539Z,3.10
2019-05-29T17:09:10.791Z,1.70
2019-05-29T17:13:16.216Z,1.70
2019-05-29T17:17:22.698Z,1.90
2019-05-29T17:21:27.259Z,2.40
2019-05-29T17:25:31.597Z,1.52
2019-05-29T17:29:37.627Z,1.30
2019-05-29T17:33:41.819Z,1.80
2019-05-29T17:37:47.518Z,0.70
2019-05-29T17:41:51.695Z,1.42
2019-05-29T17:45:55.919Z,2.52
2019-05-29T17:50:00.105Z,2.17
2019-05-29T17:54:05.452Z,1.92
2019-05-29T17:58:09.596Z,0.80
2019-05-29T18:02:14.141Z,1.95
2019-05-29T18:06:18.368Z,1.20
2019-05-29T18:10:24.206Z,1.22
2019-05-29T18:14:28.847Z,2.42
2019-05-29T18:18:33.078Z,1.32
2019-05-29T18:22:37.421Z,1.40
2019-05-29T18:26:46.894Z,0.90
2019-05-29T18:30:48.649Z,1.07
2019-05-29T18:34:56.545Z,0.90
2019-05-29T18:39:00.995Z,1.20
2019-05-29T18:43:06.812Z,0.72
2019-05-29T18:47:11.106Z,1.27
2019-05-29T18:51:15.262Z,3.80
2019-05-29T18:55:20.786Z,1.98
2019-05-29T18:59:27.592Z,1.75
2019-05-29T19:03:32.667Z,1.37
2019-05-29T19:07:36.982Z,1.20
2019-05-29T19:11:41.233Z,1.50
2019-05-29T19:15:45.487Z,2.12
2019-05-29T19:19:49.615Z,1.55
2019-05-29T19:23:53.758Z,1.67
2019-05-29T19:27:58.143Z,1.35
2019-05-29T19:32:03.677Z,2.83
2019-05-29T19:36:07.739Z,6.72
2019-05-29T19:40:12.137Z,5.92
2019-05-29T19:44:16.399Z,4.12
2019-05-29T19:48:21.604Z,1.77
2019-05-29T19:52:27.000Z,3.50
2019-05-29T19:56:31.743Z,2.17
2019-05-29T20:00:36.350Z,1.10
2019-05-29T20:04:41.108Z,1.62
2019-05-29T20:08:45.448Z,2.20
2019-05-29T20:12:49.994Z,4.67
2019-05-29T20:16:54.251Z,5.22
2019-05-29T20:20:59.633Z,7.22
2019-05-29T20:25:04.256Z,7.78
2019-05-29T20:29:08.404Z,5.83
2019-05-29T20:33:12.705Z,2.22
2019-05-29T20:37:16.794Z,2.05
2019-05-29T20:41:21.355Z,1.55
2019-05-29T20:45:25.519Z,2.15
2019-05-29T20:49:29.691Z,1.57
2019-05-29T20:53:33.885Z,1.15
2019-05-29T20:57:38.162Z,1.00
2019-05-29T21:01:46.025Z,1.72
2019-05-29T21:05:48.474Z,1.10
2019-05-29T21:09:52.687Z,1.62
2019-05-29T21:13:56.838Z,1.42
2019-05-29T21:18:01.132Z,7.47
2019-05-29T21:22:05.275Z,11.40
2019-05-29T21:26:09.558Z,9.58
2019-05-29T21:30:14.294Z,7.22
2019-05-29T21:34:18.637Z,5.53
2019-05-29T21:38:22.759Z,5.97
2019-05-29T21:42:26.934Z,3.22
2019-05-29T21:46:31.336Z,2.67
2019-05-29T21:50:35.492Z,2.05
2019-05-29T21:54:39.554Z,1.22
2019-05-29T21:58:59.985Z,2.12
2019-05-29T22:02:49.847Z,1.85
2019-05-29T22:06:54.198Z,1.85
2019-05-29T22:10:59.513Z,1.25
2019-05-29T22:15:04.430Z,1.60
2019-05-29T22:19:09.854Z,3.17
2019-05-29T22:23:14.377Z,2.30
2019-05-29T22:27:18.500Z,1.27
2019-05-29T22:31:22.738Z,1.15
2019-05-29T22:35:27.017Z,2.85
2019-05-29T22:39:31.223Z,2.02
2019-05-29T22:43:35.601Z,2.10
2019-05-29T22:47:40.655Z,2.30
2019-05-29T22:51:44.948Z,1.57
2019-05-29T22:55:49.162Z,1.52
2019-05-29T22:59:53.974Z,1.20
2019-05-29T23:03:58.316Z,1.40
2019-05-29T23:08:02.661Z,2.00
2019-05-29T23:12:07.006Z,2.60
2019-05-29T23:16:11.537Z,2.55
2019-05-29T23:20:15.682Z,3.15
2019-05-29T23:24:19.781Z,1.80
2019-05-29T23:28:24.142Z,2.25
2019-05-29T23:32:28.237Z,1.87
2019-05-29T23:36:32.510Z,2.27
2019-05-29T23:40:36.662Z,1.57
2019-05-29T23:44:44.910Z,2.67
2019-05-29T23:48:50.285Z,2.95
2019-05-29T23:52:55.590Z,1.60
2019-05-29T23:57:00.029Z,2.10
